createdAt,value
2023-04-02T00:02:22.442Z,81.51
2023-04-02T00:05:30.737Z,81.46
2023-04-02T00:08:03.489Z,81.69
2023-04-02T00:10:38.706Z,81.79
2023-04-02T00:13:10.417Z,81.70
2023-04-02T00:15:41.562Z,81.84
2023-04-02T00:18:15.462Z,82.08
2023-04-02T00:20:57.457Z,82.26
2023-04-02T00:23:28.515Z,82.17
2023-04-02T00:25:57.192Z,82.46
2023-04-02T00:28:26.802Z,82.72
2023-04-02T00:31:00.164Z,82.94
2023-04-02T00:33:32.036Z,82.96
2023-04-02T00:36:00.866Z,82.94
2023-04-02T00:38:35.247Z,82.96
2023-04-02T00:41:06.860Z,83.00
2023-04-02T00:43:39.485Z,82.99
2023-04-02T00:46:14.981Z,83.19
2023-04-02T00:49:09.384Z,83.22
2023-04-02T00:51:45.094Z,83.24
2023-04-02T00:54:17.640Z,83.35
2023-04-02T00:56:49.278Z,83.47
2023-04-02T00:59:26.176Z,83.72
2023-04-02T01:02:19.785Z,84.13
2023-04-02T01:05:20.300Z,84.23
2023-04-02T01:08:08.728Z,84.36
2023-04-02T01:10:55.752Z,84.15
2023-04-02T01:13:40.638Z,83.62
2023-04-02T01:16:18.543Z,83.68
2023-04-02T01:19:04.094Z,83.51
2023-04-02T01:21:44.068Z,83.57
2023-04-02T01:24:14.288Z,83.50
2023-04-02T01:27:00.471Z,83.88
2023-04-02T01:29:38.363Z,83.76
2023-04-02T01:32:13.425Z,83.77
2023-04-02T01:34:46.712Z,84.02
2023-04-02T01:37:38.221Z,83.77
2023-04-02T01:40:21.954Z,83.89
2023-04-02T01:42:53.699Z,84.07
2023-04-02T01:45:23.922Z,84.14
2023-04-02T01:47:52.747Z,84.16
2023-04-02T01:50:37.505Z,84.14
2023-04-02T01:53:10.780Z,84.27
2023-04-02T01:55:52.884Z,84.25
2023-04-02T01:58:28.024Z,84.11
2023-04-02T02:01:07.466Z,84.26
2023-04-02T02:03:44.779Z,84.24
2023-04-02T02:06:16.862Z,84.15
2023-04-02T02:08:56.654Z,83.96
2023-04-02T02:11:29.278Z,83.84
2023-04-02T02:14:19.221Z,83.55
2023-04-02T02:16:49.675Z,83.42
2023-04-02T02:19:39.938Z,83.29
2023-04-02T02:22:35.449Z,83.01
2023-04-02T02:25:12.234Z,82.68
2023-04-02T02:27:52.843Z,82.94
2023-04-02T02:30:47.405Z,83.08
2023-04-02T02:33:29.230Z,83.16
2023-04-02T02:36:03.695Z,83.11
2023-04-02T02:39:17.456Z,82.43
2023-04-02T02:42:01.608Z,82.09
2023-04-02T02:44:35.302Z,82.10
2023-04-02T02:47:16.916Z,82.11
2023-04-02T02:49:50.178Z,82.03
2023-04-02T02:52:31.968Z,82.01
2023-04-02T02:55:15.815Z,82.03
2023-04-02T02:57:54.489Z,82.07
2023-04-02T03:00:24.945Z,82.16
2023-04-02T03:02:57.283Z,82.31
2023-04-02T03:05:29.423Z,82.44
2023-04-02T03:08:05.912Z,82.20
2023-04-02T03:10:39.581Z,82.34
2023-04-02T03:13:35.761Z,82.12
2023-04-02T03:16:16.826Z,82.04
2023-04-02T03:18:58.777Z,82.00
2023-04-02T03:21:38.216Z,81.84
2023-04-02T03:24:36.087Z,81.90
2023-04-02T03:27:07.742Z,81.83
2023-04-02T03:29:42.063Z,81.99
2023-04-02T03:32:22.822Z,82.06
2023-04-02T03:35:01.864Z,82.04
2023-04-02T03:37:33.200Z,81.32
2023-04-02T03:40:09.064Z,81.06
2023-04-02T03:42:53.722Z,81.63
2023-04-02T03:45:28.549Z,81.97
2023-04-02T03:48:05.977Z,81.89
2023-04-02T03:51:00.856Z,81.70
2023-04-02T03:53:32.337Z,81.78
2023-04-02T03:56:02.711Z,81.84
2023-04-02T03:58:42.356Z,81.98
2023-04-02T04:01:20.762Z,82.22
2023-04-02T04:03:53.579Z,82.33
2023-04-02T04:06:29.242Z,82.33
2023-04-02T04:09:07.421Z,82.73
2023-04-02T04:11:45.875Z,82.65
2023-04-02T04:14:20.646Z,82.59
2023-04-02T04:17:04.692Z,82.56
2023-04-02T04:19:49.699Z,82.58
2023-04-02T04:22:30.647Z,82.66
2023-04-02T04:25:08.506Z,82.77
2023-04-02T04:27:45.541Z,82.73
2023-04-02T04:30:18.604Z,82.60
2023-04-02T04:32:59.004Z,82.23
2023-04-02T04:35:57.255Z,81.75
2023-04-02T04:38:39.792Z,81.83
2023-04-02T04:41:27.127Z,81.92
2023-04-02T04:44:13.705Z,81.74
2023-04-02T04:46:47.428Z,81.98
2023-04-02T04:49:22.604Z,81.98
2023-04-02T04:51:54.700Z,82.00
2023-04-02T04:54:27.067Z,82.22
2023-04-02T04:57:01.432Z,82.50
2023-04-02T04:59:42.888Z,82.94
2023-04-02T05:02:27.025Z,83.36
2023-04-02T05:04:57.102Z,83.55
2023-04-02T05:07:28.495Z,83.70
2023-04-02T05:10:08.546Z,83.84
2023-04-02T05:13:11.134Z,84.05
2023-04-02T05:16:01.181Z,84.36
2023-04-02T05:18:49.477Z,84.51
2023-04-02T05:21:27.372Z,84.45
2023-04-02T05:24:25.153Z,84.57
2023-04-02T05:27:04.561Z,84.55
2023-04-02T05:29:39.302Z,84.46
2023-04-02T05:32:17.289Z,84.25
2023-04-02T05:34:51.838Z,83.62
2023-04-02T05:37:24.680Z,83.31
2023-04-02T05:39:57.305Z,83.00
2023-04-02T05:42:31.198Z,82.91
2023-04-02T05:45:19.727Z,82.69
2023-04-02T05:47:52.297Z,82.57
2023-04-02T05:50:27.371Z,82.54
2023-04-02T05:53:11.518Z,82.41
2023-04-02T05:56:03.960Z,82.45
2023-04-02T05:58:45.528Z,81.84
2023-04-02T06:01:37.645Z,81.64
2023-04-02T06:04:30.120Z,81.65
2023-04-02T06:07:02.894Z,81.43
2023-04-02T06:09:47.054Z,81.36
2023-04-02T06:12:24.947Z,81.35
2023-04-02T06:14:54.152Z,80.96
2023-04-02T06:17:24.221Z,80.55
2023-04-02T06:19:56.530Z,80.83
2023-04-02T06:22:46.906Z,80.18
2023-04-02T06:25:23.707Z,79.59
2023-04-02T06:27:56.964Z,79.15
2023-04-02T06:30:33.953Z,79.46
2023-04-02T06:33:04.029Z,79.64
2023-04-02T06:35:38.351Z,79.91
2023-04-02T06:38:17.815Z,80.09
2023-04-02T06:41:01.511Z,80.04
2023-04-02T06:44:01.824Z,80.27
2023-04-02T06:46:54.472Z,79.71
2023-04-02T06:49:33.507Z,79.89
2023-04-02T06:52:11.415Z,79.41
2023-04-02T06:54:40.354Z,79.49
2023-04-02T06:57:14.270Z,79.72
2023-04-02T06:59:45.471Z,79.47
2023-04-02T07:02:37.588Z,79.77
2023-04-02T07:05:11.826Z,80.17
2023-04-02T07:07:46.312Z,80.15
2023-04-02T07:10:16.038Z,80.38
2023-04-02T07:12:44.924Z,80.24
2023-04-02T07:15:17.852Z,80.20
2023-04-02T07:17:47.229Z,79.97
2023-04-02T07:20:37.898Z,78.89
2023-04-02T07:23:10.816Z,78.33
2023-04-02T07:25:40.399Z,77.28
2023-04-02T07:28:09.191Z,77.33
2023-04-02T07:30:38.095Z,77.09
2023-04-02T07:33:07.791Z,76.89
2023-04-02T07:35:37.170Z,77.03
2023-04-02T07:38:06.608Z,77.09
2023-04-02T07:40:36.009Z,76.93
2023-04-02T07:43:05.832Z,76.91
2023-04-02T07:45:36.609Z,77.15
2023-04-02T07:48:12.826Z,76.47
2023-04-02T07:50:43.274Z,76.12
2023-04-02T07:53:33.264Z,76.08
2023-04-02T07:56:08.815Z,76.03
2023-04-02T07:58:38.603Z,76.53
2023-04-02T08:01:20.631Z,76.44
2023-04-02T08:03:52.959Z,76.56
2023-04-02T08:06:25.289Z,76.70
2023-04-02T08:08:54.275Z,76.33
2023-04-02T08:11:23.225Z,76.39
2023-04-02T08:13:52.503Z,76.46
2023-04-02T08:16:21.767Z,76.49
2023-04-02T08:18:50.728Z,76.43
2023-04-02T08:21:19.788Z,76.96
2023-04-02T08:23:48.917Z,76.88
2023-04-02T08:26:19.724Z,76.98
2023-04-02T08:28:54.465Z,77.29
2023-04-02T08:31:24.052Z,76.66
2023-04-02T08:33:54.419Z,76.23
2023-04-02T08:36:31.252Z,76.13
2023-04-02T08:39:02.000Z,76.07
2023-04-02T08:41:51.063Z,76.04
2023-04-02T08:44:27.438Z,76.13
2023-04-02T08:47:08.778Z,76.09
2023-04-02T08:49:50.530Z,75.99
2023-04-02T08:52:24.962Z,76.05
2023-04-02T08:54:56.759Z,76.11
2023-04-02T08:57:51.459Z,75.72
2023-04-02T09:00:49.268Z,76.03
2023-04-02T09:03:39.719Z,76.24
2023-04-02T09:06:16.477Z,74.78
2023-04-02T09:08:48.168Z,74.48
2023-04-02T09:11:41.794Z,74.83
2023-04-02T09:14:20.757Z,74.35
2023-04-02T09:16:54.901Z,73.82
2023-04-02T09:19:31.877Z,73.56
2023-04-02T09:22:17.688Z,73.16
2023-04-02T09:24:52.438Z,72.65
2023-04-02T09:27:28.036Z,73.78
2023-04-02T09:30:04.180Z,73.90
2023-04-02T09:32:46.032Z,73.89
2023-04-02T09:35:25.346Z,73.10
2023-04-02T09:38:07.769Z,72.05
2023-04-02T09:40:59.200Z,71.19
2023-04-02T09:43:37.163Z,71.84
2023-04-02T09:46:32.386Z,71.86
2023-04-02T09:49:01.993Z,72.05
2023-04-02T09:51:34.493Z,72.07
2023-04-02T09:54:03.176Z,71.04
2023-04-02T09:56:39.700Z,70.91
2023-04-02T09:59:15.869Z,71.80
2023-04-02T10:01:53.667Z,71.60
2023-04-02T10:04:39.616Z,70.49
2023-04-02T10:07:30.575Z,70.44
2023-04-02T10:10:21.459Z,71.36
2023-04-02T10:12:57.939Z,71.46
2023-04-02T10:15:34.167Z,71.76
2023-04-02T10:18:15.280Z,71.89
2023-04-02T10:20:51.369Z,72.04
2023-04-02T10:23:24.526Z,72.14
2023-04-02T10:26:35.412Z,72.49
2023-04-02T10:29:25.915Z,73.02
2023-04-02T10:32:03.301Z,73.06
2023-04-02T10:34:43.454Z,73.41
2023-04-02T10:37:24.741Z,73.49
2023-04-02T10:40:21.063Z,72.93
2023-04-02T10:43:01.743Z,72.24
2023-04-02T10:45:57.865Z,72.45
2023-04-02T10:48:43.553Z,72.38
2023-04-02T10:51:24.530Z,71.33
2023-04-02T10:54:03.046Z,71.02
2023-04-02T10:56:44.137Z,70.92
2023-04-02T10:59:26.783Z,71.33
2023-04-02T11:02:00.903Z,70.37
2023-04-02T11:04:46.606Z,70.20
2023-04-02T11:07:21.418Z,70.91
2023-04-02T11:09:55.586Z,70.14
2023-04-02T11:12:43.918Z,70.02
2023-04-02T11:15:18.260Z,70.53
2023-04-02T11:17:48.655Z,70.27
2023-04-02T11:20:48.505Z,70.57
2023-04-02T11:23:20.469Z,70.11
2023-04-02T11:25:49.649Z,70.33
2023-04-02T11:28:29.432Z,70.66
2023-04-02T11:30:59.383Z,70.78
2023-04-02T11:33:38.200Z,70.50
2023-04-02T11:36:48.010Z,69.80
2023-04-02T11:39:54.252Z,69.51
2023-04-02T11:42:28.581Z,69.57
2023-04-02T11:45:01.905Z,69.91
2023-04-02T11:47:31.325Z,70.01
2023-04-02T11:50:02.450Z,69.31
2023-04-02T11:52:52.382Z,69.29
2023-04-02T11:55:25.500Z,69.51
2023-04-02T11:58:26.640Z,70.09
2023-04-02T12:01:16.845Z,71.27
2023-04-02T12:03:50.570Z,70.78
2023-04-02T12:06:40.622Z,70.44
2023-04-02T12:09:19.527Z,71.00
2023-04-02T12:11:51.646Z,70.61
2023-04-02T12:14:43.509Z,70.69
2023-04-02T12:17:37.865Z,70.10
2023-04-02T12:20:10.920Z,70.17
2023-04-02T12:22:50.177Z,69.79
2023-04-02T12:25:40.877Z,70.52
2023-04-02T12:28:10.413Z,69.94
2023-04-02T12:30:41.882Z,70.32
2023-04-02T12:33:21.628Z,70.21
2023-04-02T12:35:58.894Z,70.13
2023-04-02T12:38:35.627Z,70.23
2023-04-02T12:41:20.153Z,70.61
2023-04-02T12:43:58.906Z,70.32
2023-04-02T12:46:31.473Z,70.16
2023-04-02T12:49:17.631Z,70.33
2023-04-02T12:51:48.479Z,70.72
2023-04-02T12:54:20.181Z,70.97
2023-04-02T12:56:49.978Z,71.13
2023-04-02T12:59:36.477Z,70.72
2023-04-02T13:02:22.286Z,70.55
2023-04-02T13:05:02.711Z,71.26
2023-04-02T13:07:34.650Z,71.10
2023-04-02T13:10:25.963Z,71.11
2023-04-02T13:12:58.132Z,71.06
2023-04-02T13:15:36.975Z,70.97
2023-04-02T13:18:06.364Z,71.02
2023-04-02T13:20:39.997Z,71.17
2023-04-02T13:23:27.868Z,71.15
2023-04-02T13:26:00.912Z,71.05
2023-04-02T13:28:30.468Z,71.27
2023-04-02T13:31:00.164Z,71.45
2023-04-02T13:33:29.692Z,71.43
2023-04-02T13:35:58.759Z,71.49
2023-04-02T13:38:28.168Z,71.52
2023-04-02T13:40:57.982Z,71.73
2023-04-02T13:43:27.462Z,71.74
2023-04-02T13:46:00.614Z,71.74
2023-04-02T13:48:30.251Z,71.77
2023-04-02T13:50:59.681Z,71.42
2023-04-02T13:53:33.868Z,71.75
2023-04-02T13:56:03.340Z,72.04
2023-04-02T13:58:32.679Z,71.80
2023-04-02T14:01:02.444Z,71.95
2023-04-02T14:03:31.985Z,71.92
2023-04-02T14:06:13.376Z,71.89
2023-04-02T14:09:01.906Z,71.62
2023-04-02T14:11:45.869Z,71.85
2023-04-02T14:14:26.841Z,71.86
2023-04-02T14:17:21.151Z,71.05
2023-04-02T14:20:12.000Z,71.43
2023-04-02T14:23:14.226Z,71.28
2023-04-02T14:25:56.552Z,71.61
2023-04-02T14:28:58.089Z,71.78
2023-04-02T14:31:54.707Z,71.45
2023-04-02T14:34:33.072Z,71.37
2023-04-02T14:37:22.891Z,71.52
2023-04-02T14:40:21.595Z,71.77
2023-04-02T14:43:28.063Z,72.07
2023-04-02T14:46:00.773Z,71.77
2023-04-02T14:48:55.130Z,71.46
2023-04-02T14:52:04.414Z,71.76
2023-04-02T14:54:45.890Z,71.82
2023-04-02T14:57:31.234Z,71.58
2023-04-02T15:00:06.098Z,71.45
2023-04-02T15:02:47.282Z,71.68
2023-04-02T15:05:17.251Z,71.94
2023-04-02T15:07:58.354Z,71.89
2023-04-02T15:10:37.652Z,71.65
2023-04-02T15:13:15.938Z,71.56
2023-04-02T15:15:54.779Z,71.80
2023-04-02T15:18:25.962Z,71.99
2023-04-02T15:21:10.304Z,71.95
2023-04-02T15:23:57.948Z,72.13
2023-04-02T15:26:45.984Z,71.92
2023-04-02T15:29:30.435Z,71.76
2023-04-02T15:32:23.687Z,71.91
2023-04-02T15:35:17.561Z,72.03
2023-04-02T15:37:52.912Z,71.84
2023-04-02T15:40:34.704Z,71.41
2023-04-02T15:43:23.336Z,71.77
2023-04-02T15:46:10.793Z,71.57
2023-04-02T15:48:45.813Z,71.36
2023-04-02T15:51:36.718Z,71.36
2023-04-02T15:54:27.316Z,71.57
2023-04-02T15:57:25.474Z,71.78
2023-04-02T16:00:29.066Z,71.03
2023-04-02T16:03:28.300Z,71.26
2023-04-02T16:06:17.680Z,70.76
2023-04-02T16:09:16.479Z,70.80
2023-04-02T16:11:46.406Z,70.76
2023-04-02T16:14:28.684Z,70.42
2023-04-02T16:17:17.479Z,69.92
2023-04-02T16:20:24.545Z,69.70
2023-04-02T16:23:13.752Z,69.18
2023-04-02T16:26:26.747Z,68.00
2023-04-02T16:29:40.805Z,68.36
2023-04-02T16:32:57.732Z,68.49
2023-04-02T16:36:05.010Z,69.26
2023-04-02T16:38:47.517Z,69.80
2023-04-02T16:41:44.272Z,69.79
2023-04-02T16:44:38.161Z,69.01
2023-04-02T16:47:46.096Z,69.39
2023-04-02T16:50:35.342Z,69.35
2023-04-02T16:53:38.662Z,68.80
2023-04-02T16:56:25.402Z,69.04
2023-04-02T16:59:32.312Z,69.08
2023-04-02T17:02:21.157Z,69.33
2023-04-02T17:04:59.443Z,69.41
2023-04-02T17:07:31.844Z,69.19
2023-04-02T17:10:45.351Z,69.34
2023-04-02T17:13:30.156Z,69.46
2023-04-02T17:16:04.970Z,69.40
2023-04-02T17:18:34.715Z,69.60
2023-04-02T17:21:10.817Z,69.38
2023-04-02T17:23:56.355Z,69.46
2023-04-02T17:26:30.317Z,69.35
2023-04-02T17:29:04.445Z,68.99
2023-04-02T17:31:35.601Z,68.53
2023-04-02T17:34:15.338Z,68.71
2023-04-02T17:37:28.682Z,68.34
2023-04-02T17:40:21.664Z,68.37
2023-04-02T17:43:12.189Z,68.42
2023-04-02T17:45:56.943Z,68.48
2023-04-02T17:48:34.870Z,68.64
2023-04-02T17:51:24.284Z,68.61
2023-04-02T17:54:21.411Z,68.59
2023-04-02T17:57:12.439Z,68.33
2023-04-02T18:00:11.187Z,68.81
2023-04-02T18:03:11.633Z,69.03
2023-04-02T18:05:59.756Z,68.99
2023-04-02T18:08:34.700Z,69.33
2023-04-02T18:11:12.306Z,69.57
2023-04-02T18:14:00.867Z,69.75
2023-04-02T18:16:50.463Z,69.88
2023-04-02T18:19:49.488Z,70.02
2023-04-02T18:22:44.879Z,70.25
2023-04-02T18:25:25.201Z,70.74
2023-04-02T18:28:21.650Z,70.61
2023-04-02T18:30:55.152Z,70.74
2023-04-02T18:34:04.179Z,70.93
2023-04-02T18:36:49.115Z,70.98
2023-04-02T18:39:24.451Z,71.21
2023-04-02T18:42:03.080Z,71.29
2023-04-02T18:44:52.220Z,71.43
2023-04-02T18:47:50.663Z,71.53
2023-04-02T18:50:39.369Z,71.68
2023-04-02T18:53:19.457Z,71.76
2023-04-02T18:56:12.047Z,71.96
2023-04-02T18:59:05.541Z,71.95
2023-04-02T19:04:21.673Z,72.00
2023-04-02T19:07:07.283Z,71.98
2023-04-02T19:09:41.924Z,72.03
2023-04-02T19:12:19.954Z,71.81
2023-04-02T19:14:52.526Z,71.61
2023-04-02T19:17:47.186Z,71.55
2023-04-02T19:20:45.645Z,71.66
2023-04-02T19:23:50.685Z,71.73
2023-04-02T19:26:30.631Z,71.72
2023-04-02T19:29:25.275Z,71.38
2023-04-02T19:32:06.294Z,70.94
2023-04-02T19:34:40.102Z,69.42
2023-04-02T19:37:42.486Z,69.46
2023-04-02T19:40:41.477Z,68.62
2023-04-02T19:43:12.670Z,68.45
2023-04-02T19:45:47.437Z,68.29
2023-04-02T19:48:21.707Z,67.84
2023-04-02T19:50:52.944Z,66.83
2023-04-02T19:53:22.670Z,65.69
2023-04-02T19:55:52.536Z,65.81
2023-04-02T19:58:34.125Z,65.07
2023-04-02T20:01:04.913Z,64.26
2023-04-02T20:03:35.323Z,63.60
2023-04-02T20:06:04.939Z,63.21
2023-04-02T20:08:36.328Z,62.94
2023-04-02T20:11:07.388Z,62.67
2023-04-02T20:13:37.814Z,62.66
2023-04-02T20:16:08.036Z,62.46
2023-04-02T20:18:37.753Z,62.14
2023-04-02T20:21:10.571Z,61.90
2023-04-02T20:23:39.420Z,62.08
2023-04-02T20:26:09.027Z,61.94
2023-04-02T20:28:38.358Z,60.34
2023-04-02T20:31:13.248Z,60.54
2023-04-02T20:33:44.857Z,60.72
2023-04-02T20:36:16.540Z,59.95
2023-04-02T20:38:46.180Z,59.57
2023-04-02T20:41:18.781Z,59.34
2023-04-02T20:43:48.711Z,58.80
2023-04-02T20:46:17.955Z,58.90
2023-04-02T20:48:47.329Z,59.58
2023-04-02T20:54:05.046Z,57.49
2023-04-02T20:56:34.935Z,57.08
2023-04-02T20:59:04.743Z,57.06
2023-04-02T21:01:33.700Z,57.06
2023-04-02T21:04:04.209Z,56.97
2023-04-02T21:06:36.747Z,56.70
2023-04-02T21:09:09.440Z,57.02
2023-04-02T21:11:38.536Z,57.71
2023-04-02T21:14:07.525Z,57.49
2023-04-02T21:16:37.666Z,58.10
2023-04-02T21:19:09.838Z,58.59
2023-04-02T21:21:41.881Z,59.08
2023-04-02T21:24:11.329Z,59.06
2023-04-02T21:26:41.958Z,58.41
2023-04-02T21:29:12.438Z,58.20
2023-04-02T21:31:42.514Z,58.54
2023-04-02T21:34:16.396Z,59.19
2023-04-02T21:36:47.302Z,59.02
2023-04-02T21:39:24.525Z,59.61
2023-04-02T21:41:54.080Z,59.51
2023-04-02T21:44:24.927Z,59.22
2023-04-02T21:46:54.376Z,59.32
2023-04-02T21:49:24.353Z,58.82
2023-04-02T21:51:53.432Z,59.21
2023-04-02T21:54:22.883Z,59.10
2023-04-02T21:56:52.824Z,58.39
2023-04-02T21:59:22.255Z,59.50
2023-04-02T22:01:52.217Z,58.98
2023-04-02T22:04:23.642Z,59.17
2023-04-02T22:06:54.888Z,59.61
2023-04-02T22:09:25.414Z,59.99
2023-04-02T22:12:01.647Z,59.99
2023-04-02T22:14:32.241Z,59.85
2023-04-02T22:17:01.806Z,59.15
2023-04-02T22:19:30.801Z,59.42
2023-04-02T22:21:59.888Z,59.03
2023-04-02T22:24:28.969Z,59.25
2023-04-02T22:26:57.682Z,58.88
2023-04-02T22:29:26.354Z,59.30
2023-04-02T22:31:55.954Z,59.64
2023-04-02T22:34:24.436Z,59.69
2023-04-02T22:36:53.241Z,59.57
2023-04-02T22:39:22.110Z,59.76
2023-04-02T22:41:50.895Z,60.05
2023-04-02T22:44:19.385Z,59.97
2023-04-02T22:46:47.865Z,59.99
2023-04-02T22:49:19.631Z,59.87
2023-04-02T22:51:48.471Z,59.82
2023-04-02T22:54:17.406Z,60.23
2023-04-02T22:56:46.918Z,60.33
2023-04-02T22:59:15.806Z,60.52
2023-04-02T23:01:44.643Z,60.79
2023-04-02T23:04:13.284Z,61.09
2023-04-02T23:06:41.671Z,60.89
2023-04-02T23:09:10.539Z,60.96
2023-04-02T23:11:39.150Z,61.11
2023-04-02T23:14:07.534Z,61.20
2023-04-02T23:16:36.612Z,61.46
2023-04-02T23:19:05.095Z,61.56
2023-04-02T23:21:33.464Z,61.74
2023-04-02T23:24:02.180Z,61.78
2023-04-02T23:26:31.626Z,61.88
2023-04-02T23:29:01.071Z,61.98
2023-04-02T23:31:29.845Z,61.98
2023-04-02T23:33:58.853Z,61.95
2023-04-02T23:36:29.194Z,62.02
2023-04-02T23:39:01.625Z,62.16
2023-04-02T23:41:31.561Z,62.09
2023-04-02T23:44:00.669Z,62.35
2023-04-02T23:46:30.052Z,62.62
2023-04-02T23:48:59.565Z,62.58
2023-04-02T23:51:29.990Z,62.84
2023-04-02T23:53:58.677Z,63.04
2023-04-02T23:56:27.458Z,62.87
2023-04-02T23:58:56.464Z,62.88
